Time;durP1;ratioP1;P1;durP2;ratioP2;P2;SDS_P1;SDS_P2;PMS_P1;PMS_P2;Temp;Humidity;BMP_temperature;BMP_pressure;BME280_temperature;BME280_humidity;BME280_pressure;Samples;Min_cycle;Max_cycle;Signal;HPM_P1;HPM_P2
2021/08/26 05:01:03;;;;;;;13.35;12.13;;;;;;;18.93;90.88;94513.13;5822416;23;20089;-78
2021/08/26 05:03:28;;;;;;;13.68;12.35;;;;;;;18.20;94.55;94501.56;4983863;28;20038;-77
2021/08/26 05:05:54;;;;;;;14.13;12.85;;;;;;;18.19;94.09;94494.72;4949456;28;20404;-82
2021/08/26 05:08:19;;;;;;;13.35;12.15;;;;;;;18.28;93.73;94496.75;4935613;28;20034;-80
2021/08/26 05:10:44;;;;;;;14.85;12.75;;;;;;;17.84;94.92;94492.09;4948945;28;20034;-82
2021/08/26 05:13:10;;;;;;;13.15;11.95;;;;;;;18.22;94.39;94495.06;4971059;28;20179;-79
2021/08/26 05:15:36;;;;;;;17.23;13.38;;;;;;;17.69;95.34;94504.84;4972517;28;20030;-81
2021/08/26 05:18:03;;;;;;;15.15;13.65;;;;;;;17.50;95.63;94505.91;4971097;28;20026;-80
2021/08/26 05:20:28;;;;;;;16.33;14.63;;;;;;;17.45;97.45;94517.03;4940280;28;20034;-80
2021/08/26 05:22:53;;;;;;;14.10;12.80;;;;;;;17.44;97.29;94514.63;4939789;28;20026;-80
2021/08/26 05:25:19;;;;;;;13.32;12.23;;;;;;;17.86;95.03;94516.22;4971540;28;20018;-80
2021/08/26 05:27:44;;;;;;;14.75;13.43;;;;;;;17.57;97.92;94512.66;4989466;28;20286;-79
2021/08/26 05:30:10;;;;;;;16.27;14.65;;;;;;;17.08;98.97;94516.31;4954786;28;20030;-80
2021/08/26 05:32:35;;;;;;;13.00;11.63;;;;;;;17.60;96.40;94503.53;4989559;28;20038;-80
2021/08/26 05:35:01;;;;;;;14.40;13.07;;;;;;;17.63;97.89;94505.72;4971067;28;20026;-79
2021/08/26 05:37:26;;;;;;;14.63;13.32;;;;;;;17.64;96.67;94518.59;4955320;28;20434;-79
2021/08/26 05:39:52;;;;;;;14.63;13.20;;;;;;;17.67;97.63;94527.81;4954825;28;20038;-79
2021/08/26 05:42:17;;;;;;;15.65;14.15;;;;;;;17.72;97.84;94526.13;4971343;28;20029;-78
2021/08/26 05:44:43;;;;;;;18.52;16.38;;;;;;;17.33;98.42;94516.22;4972325;28;20451;-76
2021/08/26 05:47:08;;;;;;;15.38;13.98;;;;;;;17.57;99.94;94522.31;4935478;28;20455;-79
2021/08/26 05:49:34;;;;;;;15.68;14.20;;;;;;;17.54;99.72;94522.75;4970832;28;20019;-79
2021/08/26 05:51:59;;;;;;;17.25;15.57;;;;;;;17.52;98.13;94516.94;4985054;28;20440;-78
2021/08/26 05:54:25;;;;;;;16.90;15.32;;;;;;;17.62;98.65;94519.84;4948409;28;20047;-79
2021/08/26 05:56:51;;;;;;;15.77;14.30;;;;;;;18.30;96.95;94512.28;4945614;28;20501;-78
2021/08/26 05:59:16;;;;;;;13.77;12.40;;;;;;;19.00;93.43;94506.94;4951254;28;20503;-78
2021/08/26 06:01:42;;;;;;;15.82;14.27;;;;;;;18.77;93.78;94505.97;4947868;29;20039;-78
2021/08/26 06:04:08;;;;;;;16.52;15.02;;;;;;;18.73;95.61;94504.03;4948663;29;20027;-78
2021/08/26 06:06:33;;;;;;;14.18;12.75;;;;;;;18.75;95.41;94507.22;4942965;29;20032;-78
2021/08/26 06:08:59;;;;;;;15.07;13.60;;;;;;;18.40;94.16;94487.06;4936070;29;20035;-79
2021/08/26 06:11:24;;;;;;;13.77;12.45;;;;;;;18.11;93.62;94480.13;4936163;29;20047;-79
2021/08/26 06:13:50;;;;;;;12.35;11.18;;;;;;;18.03;92.28;94482.28;4908615;29;20031;-78
2021/08/26 06:16:15;;;;;;;14.30;13.00;;;;;;;17.63;94.65;94484.75;4949555;29;20481;-76
2021/08/26 06:18:40;;;;;;;15.10;13.60;;;;;;;17.63;99.98;94490.00;4946077;29;20087;-76
2021/08/26 06:21:07;;;;;;;16.02;14.52;;;;;;;17.96;98.98;94482.41;4947045;29;20034;-76
2021/08/26 06:23:33;;;;;;;12.98;11.82;;;;;;;18.00;97.18;94496.66;4932601;29;20023;-79
2021/08/26 06:25:58;;;;;;;14.55;13.35;;;;;;;17.82;97.80;94507.22;4948087;28;20038;-77
2021/08/26 06:28:24;;;;;;;15.38;13.98;;;;;;;17.77;97.95;94505.28;4947349;29;20094;-78
2021/08/26 06:30:49;;;;;;;14.65;13.35;;;;;;;17.98;99.30;94501.31;4946449;29;20027;-78
2021/08/26 06:33:15;;;;;;;15.20;13.85;;;;;;;18.08;96.47;94512.03;4947418;29;20034;-77
2021/08/26 06:35:40;;;;;;;13.73;12.43;;;;;;;18.18;95.43;94517.50;4946645;29;20027;-77
2021/08/26 06:38:05;;;;;;;13.25;12.13;;;;;;;17.97;96.84;94514.66;4930715;29;20039;-78
2021/08/26 06:40:31;;;;;;;12.18;11.18;;;;;;;17.78;96.88;94511.34;4948171;28;20023;-76
2021/08/26 06:42:57;;;;;;;12.10;10.85;;;;;;;18.06;95.89;94524.56;4946735;29;20109;-77
2021/08/26 06:45:22;;;;;;;13.10;11.75;;;;;;;18.10;95.93;94525.72;4947877;29;20109;-76
2021/08/26 06:47:48;;;;;;;13.05;11.93;;;;;;;18.17;95.86;94510.66;4946076;28;20059;-76
2021/08/26 06:50:13;;;;;;;15.15;13.43;;;;;;;18.41;96.67;94491.28;4942469;29;20034;-76
2021/08/26 06:52:39;;;;;;;12.07;11.07;;;;;;;19.38;89.56;94484.28;4916370;29;20421;-76
2021/08/26 06:55:04;;;;;;;10.82;10.02;;;;;;;20.22;87.04;94469.34;4944468;29;20098;-76
2021/08/26 06:57:32;;;;;;;11.00;10.20;;;;;;;19.87;87.38;94480.09;4929963;29;20032;-76
2021/08/26 06:59:57;;;;;;;13.52;12.35;;;;;;;19.56;87.54;94477.22;4912448;29;20463;-76
2021/08/26 07:02:23;;;;;;;11.73;10.75;;;;;;;19.94;87.40;94495.72;4897637;29;20080;-75
2021/08/26 07:04:48;;;;;;;10.27;9.48;;;;;;;20.40;84.48;94513.81;4907414;29;20036;-75
2021/08/26 07:07:14;;;;;;;11.13;10.23;;;;;;;20.83;84.74;94501.75;4927791;29;20035;-75
2021/08/26 07:09:39;;;;;;;10.70;9.90;;;;;;;21.25;79.77;94499.34;4927496;29;20042;-76
2021/08/26 07:12:05;;;;;;;9.80;9.00;;;;;;;21.30;77.61;94489.66;4928354;29;20035;-75
2021/08/26 07:14:30;;;;;;;9.77;9.02;;;;;;;18.79;86.26;94495.22;4904233;29;20412;-77
2021/08/26 07:16:56;;;;;;;12.25;11.25;;;;;;;18.66;88.85;94490.22;4908601;29;20034;-76
2021/08/26 07:19:21;;;;;;;11.70;10.85;;;;;;;19.68;86.83;94485.84;4898950;29;20043;-75
2021/08/26 07:21:48;;;;;;;11.40;10.40;;;;;;;19.93;84.72;94491.50;4942930;29;20500;-74
2021/08/26 07:24:14;;;;;;;9.93;9.15;;;;;;;20.64;80.83;94488.09;4912438;29;20082;-75
2021/08/26 07:26:39;;;;;;;11.38;10.55;;;;;;;21.38;82.93;94499.72;4928001;29;20111;-76
2021/08/26 07:29:05;;;;;;;9.27;8.55;;;;;;;21.16;81.29;94498.22;4911953;29;20051;-75
2021/08/26 07:31:30;;;;;;;11.52;10.52;;;;;;;21.02;78.79;94495.13;4926660;29;20047;-77
2021/08/26 07:33:56;;;;;;;11.30;10.40;;;;;;;19.66;82.80;94490.53;5290111;23;20142;-78
2021/08/26 07:36:21;;;;;;;10.32;9.52;;;;;;;21.95;79.27;94496.59;4968147;28;20046;-78
2021/08/26 07:38:47;;;;;;;11.05;10.25;;;;;;;21.83;79.39;94496.72;4953951;28;20029;-78
2021/08/26 07:41:12;;;;;;;10.82;9.80;;;;;;;21.45;81.61;94495.06;4985805;28;20029;-77
2021/08/26 07:43:38;;;;;;;9.77;9.07;;;;;;;20.91;80.30;94496.81;4979148;28;20031;-78
2021/08/26 07:46:04;;;;;;;10.63;9.75;;;;;;;20.62;82.08;94495.41;4985952;28;20030;-78
2021/08/26 07:48:29;;;;;;;10.75;9.68;;;;;;;20.93;81.55;94483.44;4969856;28;20096;-77
2021/08/26 07:50:58;;;;;;;10.18;9.38;;;;;;;21.58;78.53;94478.06;4986548;28;20018;-77
2021/08/26 07:53:24;;;;;;;9.48;8.77;;;;;;;22.07;76.20;94476.09;4987121;28;20061;-78
2021/08/26 07:55:49;;;;;;;10.02;9.23;;;;;;;21.38;78.04;94469.97;4982721;28;20023;-78
2021/08/26 07:58:15;;;;;;;9.88;9.05;;;;;;;20.06;82.67;94467.53;4970756;28;20118;-78
2021/08/26 08:00:40;;;;;;;9.35;8.65;;;;;;;20.21;83.36;94462.47;4970204;28;20031;-78
2021/08/26 08:03:05;;;;;;;9.98;9.13;;;;;;;21.76;77.68;94475.06;4955157;28;20050;-78
2021/08/26 08:05:31;;;;;;;9.10;8.35;;;;;;;21.95;75.66;94476.28;4971545;28;20027;-77
2021/08/26 08:07:57;;;;;;;9.35;8.55;;;;;;;21.42;77.63;94485.03;4978744;28;20042;-78
2021/08/26 08:10:22;;;;;;;8.65;7.95;;;;;;;20.98;78.81;94488.75;4989631;28;20603;-76
2021/08/26 08:12:48;;;;;;;9.55;8.75;;;;;;;20.86;81.64;94488.88;4972552;28;20034;-77
2021/08/26 08:15:13;;;;;;;8.07;7.45;;;;;;;21.17;76.83;94489.25;4972097;28;20030;-76
2021/08/26 08:17:39;;;;;;;8.98;8.27;;;;;;;20.85;77.42;94503.06;4990818;28;20145;-78
2021/08/26 08:20:05;;;;;;;10.15;9.35;;;;;;;20.89;79.27;94492.84;4988801;28;20515;-76
2021/08/26 08:22:31;;;;;;;12.30;11.30;;;;;;;20.34;80.11;94488.47;4969630;28;20026;-76
2021/08/26 08:24:56;;;;;;;14.48;13.18;;;;;;;20.97;81.39;94477.41;4987665;28;20393;-76
2021/08/26 08:27:22;;;;;;;11.45;10.43;;;;;;;20.83;77.92;94473.56;4964378;28;20047;-77
2021/08/26 08:29:47;;;;;;;10.10;9.25;;;;;;;20.56;78.83;94466.63;4988743;28;20030;-76
2021/08/26 08:32:14;;;;;;;11.23;10.23;;;;;;;20.63;79.06;94456.72;4988259;28;20395;-77
2021/08/26 08:34:39;;;;;;;10.48;9.52;;;;;;;20.45;78.73;94450.72;4989952;28;20046;-77
2021/08/26 08:37:05;;;;;;;10.25;9.45;;;;;;;20.52;79.18;94470.81;4931673;28;20037;-78
2021/08/26 08:39:30;;;;;;;10.43;9.52;;;;;;;20.50;79.54;94477.09;4970430;28;20368;-77
2021/08/26 08:41:56;;;;;;;10.63;9.82;;;;;;;20.46;78.99;94478.63;4973792;28;20050;-76
2021/08/26 08:44:21;;;;;;;10.13;9.23;;;;;;;20.39;81.63;94477.19;4947756;28;20018;-77
2021/08/26 08:46:48;;;;;;;12.10;11.20;;;;;;;20.64;80.40;94472.28;4978164;28;20476;-76
2021/08/26 08:49:13;;;;;;;12.40;11.50;;;;;;;20.39;80.15;94474.56;4979047;28;20124;-77
2021/08/26 08:51:39;;;;;;;11.82;10.63;;;;;;;20.33;80.07;94473.72;4980207;28;20018;-77
2021/08/26 08:54:05;;;;;;;13.38;12.07;;;;;;;20.28;81.42;94478.91;4948460;28;20034;-78
2021/08/26 08:56:30;;;;;;;13.27;11.95;;;;;;;20.40;83.81;94476.97;4917759;29;20055;-77
2021/08/26 08:58:58;;;;;;;11.93;10.93;;;;;;;20.53;82.56;94491.63;4931999;29;20504;-77
2021/08/26 09:01:23;;;;;;;12.50;11.50;;;;;;;19.52;82.63;94484.00;4933260;29;20019;-76
2021/08/26 09:03:49;;;;;;;11.68;10.77;;;;;;;19.94;81.76;94490.47;4916321;29;20031;-76
2021/08/26 09:06:14;;;;;;;13.45;12.15;;;;;;;19.87;82.01;94485.34;4933651;29;20495;-77
2021/08/26 09:08:40;;;;;;;11.18;10.18;;;;;;;19.50;82.64;94486.84;4916126;29;20584;-76
2021/08/26 09:11:32;;;;;;;11.48;10.57;;;;;;;19.93;81.27;94487.06;4917342;29;20493;-76
2021/08/26 09:14:07;;;;;;;11.02;10.13;;;;;;;19.86;81.74;94493.50;4939804;28;20539;-76
2021/08/26 09:16:44;;;;;;;11.77;10.82;;;;;;;19.95;84.94;94497.31;4938612;28;20030;-75
2021/08/26 09:19:19;;;;;;;12.57;11.50;;;;;;;19.91;84.97;94493.56;4942092;28;20038;-76
2021/08/26 09:21:44;;;;;;;10.70;9.80;;;;;;;20.04;81.74;94501.13;4936466;28;20039;-75
2021/08/26 09:24:10;;;;;;;13.15;11.95;;;;;;;20.13;84.43;94509.44;4958915;28;20541;-76
2021/08/26 09:26:35;;;;;;;12.52;11.32;;;;;;;20.21;82.26;94504.56;4952093;28;20030;-75
2021/08/26 09:29:02;;;;;;;12.20;11.15;;;;;;;20.18;82.27;94498.97;4968849;28;20031;-76
2021/08/26 09:31:28;;;;;;;12.55;11.57;;;;;;;20.33;83.87;94500.03;4933108;29;20031;-75
2021/08/26 09:34:05;;;;;;;13.63;12.23;;;;;;;20.38;83.45;94496.69;4930607;29;20464;-77
2021/08/26 09:36:48;;;;;;;12.85;11.77;;;;;;;20.76;81.85;94498.50;4951585;28;20038;-76
2021/08/26 09:39:19;;;;;;;13.30;12.02;;;;;;;21.20;79.13;94496.66;4948476;28;20500;-78
2021/08/26 09:42:03;;;;;;;13.50;12.30;;;;;;;21.29;80.64;94506.50;4933511;28;20029;-75
2021/08/26 09:44:36;;;;;;;12.77;11.70;;;;;;;21.56;78.14;94498.59;4942165;28;20054;-75
2021/08/26 09:47:03;;;;;;;14.98;13.65;;;;;;;21.39;80.15;94505.81;4949042;28;20019;-75
2021/08/26 09:49:30;;;;;;;14.68;13.43;;;;;;;21.27;78.92;94516.50;4934434;28;20512;-75
2021/08/26 09:52:08;;;;;;;15.13;13.73;;;;;;;21.33;80.93;94523.41;4933149;29;20440;-75
2021/08/26 09:54:44;;;;;;;14.77;13.40;;;;;;;21.09;81.98;94519.47;4915745;29;20181;-75
2021/08/26 09:57:29;;;;;;;13.25;11.95;;;;;;;21.02;83.19;94521.47;4901500;29;20047;-75
2021/08/26 09:59:56;;;;;;;13.10;11.82;;;;;;;21.00;80.44;94518.25;4930635;29;20055;-75
2021/08/26 10:02:23;;;;;;;13.35;12.15;;;;;;;20.76;83.42;94504.56;4922783;28;20483;-75
2021/08/26 10:04:48;;;;;;;13.40;12.30;;;;;;;20.70;81.07;94518.69;4949717;28;20023;-75
2021/08/26 10:07:15;;;;;;;12.32;11.43;;;;;;;20.60;81.72;94502.75;4950840;28;20117;-75
2021/08/26 10:09:41;;;;;;;12.82;11.82;;;;;;;20.69;82.31;94500.50;4932787;28;20118;-75
2021/08/26 10:12:08;;;;;;;13.60;12.40;;;;;;;20.55;83.07;94499.28;4949845;28;20019;-76
2021/08/26 10:14:33;;;;;;;14.32;13.13;;;;;;;20.79;83.25;94498.00;4933542;28;20480;-76
2021/08/26 10:17:00;;;;;;;14.73;13.43;;;;;;;20.78;82.52;94501.66;4918821;28;20051;-75
2021/08/26 10:19:26;;;;;;;14.48;13.23;;;;;;;20.57;82.76;94502.44;4964299;28;20535;-76
2021/08/26 10:21:51;;;;;;;14.10;12.98;;;;;;;20.97;80.70;94500.31;4961360;28;20034;-76
2021/08/26 10:24:18;;;;;;;14.45;13.18;;;;;;;21.14;81.84;94492.38;4987447;28;20415;-75
2021/08/26 10:26:45;;;;;;;13.77;12.52;;;;;;;21.10;79.17;94497.34;4953636;28;20026;-75
2021/08/26 10:29:11;;;;;;;13.30;12.23;;;;;;;21.45;77.58;94497.69;4953232;28;20026;-75
2021/08/26 10:31:37;;;;;;;12.70;11.68;;;;;;;21.77;78.48;94512.78;4970588;28;20416;-75
2021/08/26 10:34:09;;;;;;;12.07;11.13;;;;;;;22.04;75.49;94500.34;4942428;28;20047;-75
2021/08/26 10:37:04;;;;;;;13.57;12.48;;;;;;;20.48;79.14;94502.09;4951171;28;20066;-76
2021/08/26 10:39:39;;;;;;;11.55;10.75;;;;;;;21.75;76.18;94484.00;4965585;28;20101;-75
2021/08/26 10:42:16;;;;;;;13.25;12.05;;;;;;;22.02;77.58;94476.09;4951712;28;20118;-75
2021/08/26 10:45:05;;;;;;;14.63;13.32;;;;;;;21.34;76.09;94487.31;4970405;28;20039;-77
2021/08/26 10:47:49;;;;;;;12.88;11.88;;;;;;;21.50;76.52;94491.69;4949762;28;20062;-75
2021/08/26 10:50:27;;;;;;;12.27;11.27;;;;;;;21.78;77.03;94491.41;4966934;28;20038;-76
2021/08/26 10:52:53;;;;;;;14.65;13.55;;;;;;;21.61;76.85;94484.69;4947341;28;20378;-75
2021/08/26 10:55:32;;;;;;;14.95;13.63;;;;;;;21.65;77.47;94483.13;4948258;28;20086;-75
2021/08/26 10:58:16;;;;;;;14.98;13.75;;;;;;;22.13;76.73;94474.28;4931997;28;20121;-75
2021/08/26 11:00:43;;;;;;;12.32;11.32;;;;;;;21.94;74.03;94472.06;4948730;28;20576;-75
2021/08/26 11:03:09;;;;;;;13.23;12.23;;;;;;;21.89;75.58;94469.41;4950763;28;20031;-75
2021/08/26 11:05:35;;;;;;;13.55;12.32;;;;;;;22.12;73.37;94467.44;4933491;28;20035;-75
2021/08/26 11:08:01;;;;;;;14.15;13.00;;;;;;;22.14;75.55;94475.88;4931781;28;20492;-75
2021/08/26 11:10:29;;;;;;;11.68;10.80;;;;;;;23.54;71.08;94473.09;4949164;28;20042;-75
2021/08/26 11:13:35;;;;;;;10.38;9.57;;;;;;;23.74;66.98;94468.88;4956268;28;20043;-75
2021/08/26 11:16:25;;;;;;;10.23;9.35;;;;;;;23.08;70.26;94464.25;4949413;28;20042;-76
2021/08/26 11:18:51;;;;;;;10.32;9.43;;;;;;;23.30;72.21;94469.31;4964667;28;20046;-75
2021/08/26 11:21:45;;;;;;;10.32;9.57;;;;;;;22.96;73.01;94466.31;4932315;28;20035;-75
2021/08/26 11:24:23;;;;;;;12.43;11.43;;;;;;;22.83;69.43;94463.38;4947424;29;20534;-75
2021/08/26 11:26:49;;;;;;;12.73;11.63;;;;;;;22.31;73.37;94450.94;4955989;28;20060;-75
2021/08/26 11:29:17;;;;;;;13.15;11.95;;;;;;;22.39;74.08;94452.28;4952953;28;20121;-75
2021/08/26 11:32:06;;;;;;;13.00;11.80;;;;;;;21.92;76.07;94441.72;4966013;28;20031;-78
2021/08/26 11:34:41;;;;;;;12.23;11.23;;;;;;;22.75;72.12;94440.06;4947183;28;20042;-75
2021/08/26 11:37:07;;;;;;;13.73;12.63;;;;;;;22.99;70.22;94441.19;4950828;28;20023;-75
2021/08/26 11:39:37;;;;;;;13.77;12.68;;;;;;;22.24;74.03;94439.81;4951466;28;20049;-76
2021/08/26 11:42:06;;;;;;;13.68;12.48;;;;;;;22.52;74.32;94444.72;4952785;28;20140;-74
2021/08/26 11:44:32;;;;;;;14.45;13.10;;;;;;;23.19;70.76;94437.81;4953146;28;20030;-76
2021/08/26 11:46:59;;;;;;;14.40;13.10;;;;;;;22.95;71.01;94432.22;4952242;28;20046;-75
2021/08/26 11:49:38;;;;;;;13.68;12.55;;;;;;;23.12;70.89;94430.16;4918599;28;20038;-75
2021/08/26 11:52:10;;;;;;;15.80;14.35;;;;;;;22.96;71.30;94421.38;4941252;28;20455;-76
2021/08/26 11:54:44;;;;;;;14.30;13.20;;;;;;;22.49;73.62;94424.09;4943064;28;20117;-75
2021/08/26 11:57:09;;;;;;;17.13;15.32;;;;;;;22.44;72.96;94426.69;4952022;28;20411;-75
2021/08/26 11:59:36;;;;;;;14.50;13.30;;;;;;;23.09;72.68;94422.75;4937306;28;20034;-75
2021/08/26 12:02:22;;;;;;;16.60;15.15;;;;;;;23.45;70.62;94411.19;4937130;28;20027;-75
2021/08/26 12:04:58;;;;;;;16.45;15.02;;;;;;;23.39;69.96;94403.50;4969643;28;20031;-76
2021/08/26 12:07:34;;;;;;;18.10;16.40;;;;;;;23.20;71.06;94394.50;4937768;28;20023;-75
2021/08/26 12:10:17;;;;;;;15.10;13.82;;;;;;;23.43;71.36;94381.59;4920436;28;20050;-76
2021/08/26 12:13:02;;;;;;;17.27;14.90;;;;;;;23.22;70.95;94379.16;4970282;28;20031;-76
2021/08/26 12:15:39;;;;;;;13.73;12.60;;;;;;;23.52;71.28;94379.22;4971017;28;20557;-76
2021/08/26 12:18:11;;;;;;;15.82;14.35;;;;;;;23.54;70.59;94380.53;4950310;29;20521;-75
2021/08/26 12:21:02;;;;;;;14.02;12.93;;;;;;;24.10;69.32;94378.63;4934741;28;21012;-76
2021/08/26 12:23:29;;;;;;;14.18;12.93;;;;;;;23.78;69.46;94372.84;4940163;28;20047;-76
2021/08/26 12:26:16;;;;;;;12.75;11.70;;;;;;;24.22;68.46;94367.75;4936435;28;20038;-76
2021/08/26 12:28:45;;;;;;;13.80;12.50;;;;;;;24.12;67.90;94367.78;4953264;28;20124;-76
2021/08/26 12:31:16;;;;;;;15.00;12.55;;;;;;;24.05;66.47;94349.50;4952043;28;20030;-77
2021/08/26 12:34:10;;;;;;;13.85;12.73;;;;;;;24.15;67.16;94361.94;4937300;28;20026;-76
2021/08/26 12:36:41;;;;;;;15.85;14.40;;;;;;;23.83;66.73;94346.38;4938276;28;20050;-78
2021/08/26 12:39:26;;;;;;;12.43;11.52;;;;;;;24.57;66.59;94346.41;4918978;28;20034;-76
2021/08/26 12:42:21;;;;;;;13.18;12.18;;;;;;;24.51;66.67;94352.81;4928366;28;20043;-76
2021/08/26 12:44:47;;;;;;;12.82;11.77;;;;;;;24.75;67.59;94346.88;4934225;28;20125;-76
2021/08/26 12:47:28;;;;;;;13.10;11.82;;;;;;;25.08;66.07;94333.69;4954653;28;20117;-76
2021/08/26 12:49:55;;;;;;;13.93;12.73;;;;;;;24.67;65.34;94337.63;4940385;28;20027;-76
2021/08/26 12:52:35;;;;;;;14.52;13.35;;;;;;;24.34;67.77;94331.16;4975531;28;20032;-75
2021/08/26 12:55:01;;;;;;;13.15;12.00;;;;;;;24.80;67.28;94328.28;4945382;28;20031;-77
2021/08/26 12:57:26;;;;;;;13.45;12.35;;;;;;;24.89;65.25;94321.38;4937843;28;20507;-77
2021/08/26 12:59:52;;;;;;;13.40;11.95;;;;;;;24.60;66.07;94314.09;4954065;28;20027;-78
2021/08/26 13:02:17;;;;;;;13.65;12.55;;;;;;;24.63;66.73;94318.03;4961153;28;20027;-76
2021/08/26 13:04:43;;;;;;;14.18;12.90;;;;;;;24.83;64.12;94306.56;4975994;28;20015;-76
2021/08/26 13:07:19;;;;;;;13.63;12.52;;;;;;;25.03;64.75;94306.44;4979031;28;20041;-77
2021/08/26 13:10:01;;;;;;;14.13;12.85;;;;;;;24.80;64.49;94297.28;4942449;28;20090;-76
2021/08/26 13:12:27;;;;;;;13.45;12.45;;;;;;;24.94;65.48;94292.19;4937090;28;20033;-76
2021/08/26 13:14:52;;;;;;;13.73;12.63;;;;;;;25.27;63.85;94283.44;4934570;28;20023;-76
2021/08/26 13:17:18;;;;;;;13.90;12.85;;;;;;;24.93;64.94;94286.09;4919673;28;20031;-78
2021/08/26 13:19:50;;;;;;;14.90;13.57;;;;;;;24.62;64.16;94288.13;4935346;28;20460;-76
2021/08/26 13:22:15;;;;;;;14.73;13.60;;;;;;;24.75;64.19;94283.28;4950789;28;20018;-76
2021/08/26 13:24:41;;;;;;;14.18;12.93;;;;;;;24.90;64.07;94277.91;4977567;28;20031;-77
2021/08/26 13:27:06;;;;;;;13.98;12.82;;;;;;;24.77;64.67;94274.00;4934285;28;20597;-77
2021/08/26 13:29:32;;;;;;;14.30;13.18;;;;;;;24.76;62.69;94264.44;4958253;28;20033;-78
2021/08/26 13:31:57;;;;;;;14.32;13.32;;;;;;;24.37;64.76;94259.13;4957661;28;20029;-78
2021/08/26 13:34:23;;;;;;;14.60;13.68;;;;;;;24.09;64.29;94249.19;4952980;28;20047;-79
2021/08/26 13:36:48;;;;;;;13.93;12.60;;;;;;;24.63;63.64;94257.91;4951250;28;20077;-77
2021/08/26 13:39:13;;;;;;;13.93;12.63;;;;;;;24.29;63.69;94256.25;4931674;29;20023;-75
2021/08/26 13:41:39;;;;;;;15.63;14.38;;;;;;;24.42;65.18;94248.50;4964432;28;20027;-78
2021/08/26 13:44:04;;;;;;;15.07;13.88;;;;;;;24.76;64.39;94253.84;4976047;28;20488;-77
2021/08/26 13:46:31;;;;;;;14.70;13.55;;;;;;;24.94;64.05;94263.84;4946130;28;20045;-77
2021/08/26 13:48:57;;;;;;;14.30;13.10;;;;;;;24.65;63.58;94279.63;4941170;28;20034;-77
2021/08/26 13:51:24;;;;;;;14.85;13.85;;;;;;;24.92;64.19;94273.91;4960899;28;20022;-78
2021/08/26 13:53:49;;;;;;;15.65;14.55;;;;;;;24.87;65.61;94275.81;4978151;28;20392;-77
2021/08/26 13:56:15;;;;;;;15.50;14.40;;;;;;;24.95;63.15;94275.22;4977803;28;20033;-77
2021/08/26 13:58:42;;;;;;;14.23;13.13;;;;;;;24.92;63.68;94273.09;4950254;28;20465;-78
2021/08/26 14:01:11;;;;;;;14.43;13.32;;;;;;;24.58;62.76;94271.19;4949690;28;20042;-76
2021/08/26 14:03:37;;;;;;;17.35;15.77;;;;;;;24.48;65.77;94283.69;4935116;28;20031;-77
2021/08/26 14:06:03;;;;;;;15.38;14.27;;;;;;;24.41;68.09;94309.69;4950072;28;20136;-76
2021/08/26 14:08:29;;;;;;;19.75;16.55;;;;;;;23.40;73.88;94309.94;4951372;28;20023;-76
2021/08/26 14:10:56;;;;;;;18.00;16.23;;;;;;;22.24;79.72;94286.75;4933573;28;20066;-80
2021/08/26 14:13:21;;;;;;;18.40;16.88;;;;;;;21.68;82.70;94304.13;4951774;28;20125;-80
2021/08/26 14:15:47;;;;;;;19.58;17.85;;;;;;;21.64;84.93;94318.09;4968384;28;20411;-77
2021/08/26 14:18:12;;;;;;;17.25;15.48;;;;;;;21.09;85.29;94321.09;4950348;28;20030;-75
2021/08/26 14:20:39;;;;;;;14.43;12.93;;;;;;;20.57;86.10;94312.97;4951936;28;20416;-80
2021/08/26 14:23:04;;;;;;;14.38;13.07;;;;;;;20.60;86.43;94301.94;4918880;28;20030;-78
2021/08/26 14:25:34;;;;;;;15.35;14.10;;;;;;;20.59;87.67;94326.66;4950709;28;20497;-80
2021/08/26 14:27:59;;;;;;;17.45;15.70;;;;;;;20.27;90.15;94324.75;4966332;28;20110;-81
2021/08/26 14:30:24;;;;;;;15.40;12.75;;;;;;;20.15;91.86;94326.69;4931630;28;20023;-81
2021/08/26 14:32:50;;;;;;;19.67;15.00;;;;;;;19.89;91.90;94325.56;4966334;28;20027;-81
2021/08/26 14:35:15;;;;;;;16.05;14.52;;;;;;;19.88;93.88;94333.69;4934390;28;20065;-80
2021/08/26 14:37:41;;;;;;;15.90;14.60;;;;;;;19.79;93.21;94322.00;4952676;28;20038;-81
2021/08/26 14:40:07;;;;;;;17.48;15.98;;;;;;;20.21;93.60;94330.97;4950268;28;20027;-81
2021/08/26 14:42:32;;;;;;;17.77;16.40;;;;;;;20.22;93.76;94324.66;4934079;28;20030;-81
2021/08/26 14:44:59;;;;;;;13.25;12.25;;;;;;;20.13;92.06;94320.84;4932921;28;20082;-80
2021/08/26 14:47:24;;;;;;;12.25;11.15;;;;;;;19.68;92.15;94320.28;4948291;28;20046;-81
2021/08/26 14:49:50;;;;;;;12.45;11.50;;;;;;;20.05;91.57;94326.56;4947654;29;20445;-81
2021/08/26 14:52:15;;;;;;;13.13;12.10;;;;;;;19.99;94.32;94320.44;4918990;28;20039;-81
2021/08/26 14:54:41;;;;;;;17.83;16.40;;;;;;;19.27;98.26;94335.41;4933609;28;20026;-82
2021/08/26 14:57:06;;;;;;;16.08;14.70;;;;;;;19.19;97.66;94327.97;4966626;28;20042;-81
2021/08/26 14:59:32;;;;;;;13.80;12.35;;;;;;;19.21;96.57;94325.88;4933958;28;20061;-81
2021/08/26 15:01:57;;;;;;;16.20;15.00;;;;;;;19.09;96.76;94334.88;4943359;28;20478;-80
2021/08/26 15:04:23;;;;;;;17.10;15.65;;;;;;;19.43;97.30;94333.84;4950520;28;20081;-81
2021/08/26 15:06:48;;;;;;;15.50;14.40;;;;;;;19.40;97.12;94336.97;4949735;28;20022;-81
2021/08/26 15:09:14;;;;;;;14.90;13.73;;;;;;;19.14;97.06;94346.25;4952407;28;20507;-81
2021/08/26 15:11:39;;;;;;;14.23;13.05;;;;;;;18.93;97.82;94339.88;4940082;28;20089;-80
2021/08/26 15:14:05;;;;;;;16.23;14.55;;;;;;;19.14;98.38;94340.19;4941921;28;20031;-80
2021/08/26 15:16:30;;;;;;;14.38;13.27;;;;;;;19.21;98.56;94336.38;4940657;28;20027;-81
2021/08/26 15:18:55;;;;;;;14.48;13.27;;;;;;;19.11;97.37;94328.34;4956068;28;20026;-82
2021/08/26 15:21:21;;;;;;;13.60;12.43;;;;;;;19.38;97.46;94318.00;4973597;28;20031;-82
2021/08/26 15:23:46;;;;;;;15.70;14.50;;;;;;;19.69;96.82;94313.97;4953771;28;20046;-83
2021/08/26 15:26:12;;;;;;;15.50;14.23;;;;;;;19.69;97.82;94314.78;4956851;28;20030;-81
2021/08/26 15:28:37;;;;;;;15.20;13.90;;;;;;;19.76;97.29;94315.41;4958440;28;20042;-81
2021/08/26 15:31:03;;;;;;;16.33;14.90;;;;;;;19.82;96.70;94319.69;4962601;28;20027;-80
2021/08/26 15:33:29;;;;;;;15.75;14.48;;;;;;;19.71;97.01;94317.19;4946946;28;20030;-80
2021/08/26 15:35:54;;;;;;;15.65;14.23;;;;;;;19.53;97.67;94317.44;4966017;28;20085;-80
2021/08/26 15:38:20;;;;;;;13.77;12.77;;;;;;;19.45;97.85;94314.22;4983305;28;20460;-80
2021/08/26 15:40:46;;;;;;;15.32;13.93;;;;;;;19.82;98.03;94311.00;4944616;28;20116;-79
2021/08/26 15:43:12;;;;;;;15.32;14.23;;;;;;;19.63;96.42;94307.06;4964912;28;20476;-79
2021/08/26 15:45:37;;;;;;;15.30;14.07;;;;;;;19.69;97.22;94309.53;4931853;28;20077;-79
2021/08/26 15:48:03;;;;;;;13.63;12.43;;;;;;;19.22;98.85;94306.47;4951148;28;20027;-79
2021/08/26 15:50:29;;;;;;;14.52;13.40;;;;;;;19.44;98.76;94304.72;4953443;28;20018;-79
2021/08/26 15:52:59;;;;;;;17.95;16.42;;;;;;;19.56;100.00;94302.00;4977342;28;20523;-79
2021/08/26 15:55:31;;;;;;;;;;;;;;;19.60;99.35;94307.56;4983472;28;20036;-80
2021/08/26 16:02:56;;;;;;;17.88;16.20;;;;;;;19.59;100.00;94292.81;4971510;28;20050;-79
2021/08/26 16:05:23;;;;;;;16.83;15.43;;;;;;;19.52;100.00;94294.84;4969252;28;20023;-79
2021/08/26 16:07:49;;;;;;;15.90;14.70;;;;;;;19.43;100.00;94297.06;4957257;28;20512;-79
2021/08/26 16:10:15;;;;;;;20.98;19.42;;;;;;;19.38;100.00;94287.28;4978945;28;20038;-79
2021/08/26 16:12:48;;;;;;;15.98;14.68;;;;;;;19.24;100.00;94293.09;4986991;28;20551;-80
2021/08/26 16:15:14;;;;;;;17.73;16.42;;;;;;;19.31;100.00;94286.63;4964470;28;20042;-80
2021/08/26 16:17:39;;;;;;;17.52;15.77;;;;;;;19.29;100.00;94293.97;4974393;28;20034;-78
2021/08/26 16:20:05;;;;;;;19.77;18.00;;;;;;;19.26;100.00;94297.09;4970170;28;20435;-78
2021/08/26 16:22:31;;;;;;;19.80;18.17;;;;;;;19.19;100.00;94290.41;4979943;28;20027;-78
2021/08/26 16:24:56;;;;;;;18.77;17.20;;;;;;;19.12;100.00;94290.56;4969130;28;20097;-79
2021/08/26 16:27:22;;;;;;;18.00;16.27;;;;;;;19.22;100.00;94285.47;4971437;28;20038;-78
2021/08/26 16:29:47;;;;;;;19.20;17.55;;;;;;;19.26;100.00;94291.84;4988989;28;20105;-79